Leo Leader — 3FQK9 — position and weather

sailwx.info

Track history (hours):
 
Tides and Currents Weather Stations Pressure Air Temp Water Temp Dewpoint Dewpoint Depression Visibility Wind Speed Wind Dir Waves Ship Positions

Leo Leader

Last reported at 2018-Apr-18 23:26 UTC. Time now 2018-Apr-19 19:27 UTC.
Position N 36°40' W 000°07'.

Length 200 m; draft 8.2 m.

Type: Cargo ship. MMSI: 357682000.

Date/timePositionNaut miles runAvg speedWind from/ knotsBaromVisibWave heightAir tempDewpointWater temp
2018-Apr-18 23:26N 36°40' W 000°07'716.3
2018-Apr-18 23:00N 36°38' W 000°15'2616.4
2018-Apr-18 21:26N 36°31' W 000°46'21716.8
2018-Apr-18 08:28N 36°00' W 005°13'817.0
2018-Apr-18 08:00N 35°59' W 005°23'15516.0
2018-Apr-17 22:19N 36°25' W 008°33'516.2
2018-Apr-17 21:59N 36°26' W 008°39'1916.2
2018-Apr-17 20:49N 36°31' W 009°02'3814.9
2018-Apr-17 18:18N 36°57' W 009°36'1116.1
2018-Apr-17 17:37N 37°07' W 009°39'316.3
2018-Apr-17 17:26N 37°10' W 009°40'916.1
2018-Apr-17 16:54N 37°19' W 009°42'716.1
2018-Apr-17 16:30N 37°25' W 009°44'816.2
2018-Apr-17 16:00N 37°33' W 009°46'816.2
2018-Apr-17 15:30N 37°41' W 009°48'816.5
2018-Apr-17 15:00N 37°49' W 009°51'816.2
2018-Apr-17 14:30N 37°57' W 009°53'815.8
2018-Apr-17 14:00N 38°04' W 009°55'816.0
2018-Apr-17 13:30N 38°12' W 009°58'816.0
2018-Apr-17 13:00N 38°20' W 010°01'816.1
2018-Apr-17 12:30N 38°28' W 010°02'816.2
2018-Apr-17 12:00N 38°36' W 010°04'816.2
2018-Apr-17 11:30N 38°44' W 010°06'815.8
2018-Apr-17 11:00N 38°51' W 010°07'816.0
2018-Apr-17 10:30N 38°59' W 010°07'815.8
2018-Apr-17 10:00N 39°07' W 010°07'815.8
2018-Apr-17 09:28N 39°16' W 010°07'715.6
2018-Apr-17 09:00N 39°23' W 010°06'815.8
2018-Apr-17 08:30N 39°31' W 010°06'815.9
2018-Apr-17 07:59N 39°39' W 010°05'815.9
2018-Apr-17 07:28N 39°48' W 010°06'66813.7
2018-Apr-15 06:36N 49°59' W 003°47'114.7
2018-Apr-15 06:30N 49°60' W 003°45'714.6
2018-Apr-15 06:00N 50°05' W 003°37'714.4
2018-Apr-15 05:30N 50°10' W 003°29'714.4
2018-Apr-15 05:00N 50°17' W 003°25'714.7
2018-Apr-15 04:30N 50°24' W 003°24'1 2.5
2018-Apr-15 04:00N 50°25' W 003°23'611.3
2018-Apr-15 03:31N 50°25' W 003°14'816.6
2018-Apr-15 03:01N 50°25' W 003°01'917.6
2018-Apr-15 02:30N 50°26' W 002°47'918.4
2018-Apr-15 02:00N 50°26' W 002°33'1019.4
2018-Apr-15 01:31N 50°26' W 002°18'1419.7
2018-Apr-15 00:49N 50°26' W 001°56'619.6
2018-Apr-15 00:30N 50°26' W 001°47'1019.3
2018-Apr-15 00:00N 50°26' W 001°32'1019.1
2018-Apr-14 23:30N 50°27' W 001°17'1018.3
2018-Apr-14 22:58N 50°27' W 001°01'817.4
2018-Apr-14 22:31N 50°27' W 000°49'815.9
2018-Apr-14 21:59N 50°27' W 000°36'815.4
2018-Apr-14 21:30N 50°27' W 000°24'715.0
2018-Apr-14 21:00N 50°28' W 000°12'714.6
2018-Apr-14 20:31N 50°30' W 000°01'714.5
2018-Apr-14 20:00N 50°31' E 000°10'714.5
2018-Apr-14 19:31N 50°33' E 000°21'815.1
2018-Apr-14 19:01N 50°35' E 000°32'815.7
2018-Apr-14 18:31N 50°40' E 000°43'917.1
2018-Apr-14 18:00N 50°45' E 000°53'918.1
2018-Apr-14 17:30N 50°51' E 001°04'918.5
2018-Apr-14 17:00N 50°57' E 001°15'918.8
2018-Apr-14 16:30N 51°04' E 001°26'917.9
2018-Apr-14 16:01N 51°09' E 001°37'816.9
2018-Apr-14 15:31N 51°15' E 001°47'816.1
2018-Apr-14 15:00N 51°22' E 001°53'815.5
2018-Apr-14 14:31N 51°29' E 001°60'815.1
2018-Apr-14 14:00N 51°34' E 002°08'715.0
2018-Apr-14 13:30N 51°39' E 002°17'714.7
2018-Apr-14 13:00N 51°44' E 002°25'714.6
2018-Apr-14 12:30N 51°50' E 002°33'5216.0
2018-Apr-14 09:16N 52°31' E 003°23'1617.3
2018-Apr-14 08:20N 52°44' E 003°39'817.3
2018-Apr-14 07:54N 52°50' E 003°47'816.9
2018-Apr-14 07:24N 52°56' E 003°57'716.6
2018-Apr-14 06:58N 53°01' E 004°06'816.3
2018-Apr-14 06:29N 53°06' E 004°16'2115.2
2018-Apr-14 05:05N 53°24' E 004°35'215.3
2018-Apr-14 04:58N 53°26' E 004°36'714.6
2018-Apr-14 04:30N 53°30' E 004°45'715.0
2018-Apr-14 04:00N 53°33' E 004°56'815.0
2018-Apr-14 03:30N 53°36' E 005°08'815.6
2018-Apr-14 03:00N 53°38' E 005°21'816.6
2018-Apr-14 02:30N 53°41' E 005°34'8514.9
2018-Apr-13 20:49N 53°52' E 007°56'413.5
2018-Apr-13 20:30N 53°51' E 008°03'713.7
2018-Apr-13 20:00N 53°46' E 008°11'713.4
2018-Apr-13 19:30N 53°42' E 008°20'612.6
2018-Apr-13 19:00N 53°38' E 008°28'4 8.3
2018-Apr-13 18:30N 53°34' E 008°32'1 1.1
2018-Apr-13 18:00N 53°34' E 008°33'0 0.8
2018-Apr-13 17:30N 53°35' E 008°33'0 0.1
2018-Apr-13 17:00N 53°35' E 008°33'0 0.0
2018-Apr-13 16:30N 53°35' E 008°33'0 0.0
2018-Apr-13 16:00N 53°35' E 008°33'0 0.0
2018-Apr-13 15:30N 53°35' E 008°33'0 0.0
2018-Apr-13 15:00N 53°35' E 008°33'0 0.0
2018-Apr-13 14:00N 53°35' E 008°33'0 0.0
2018-Apr-13 13:30N 53°35' E 008°33'0 0.0
2018-Apr-13 12:30N 53°35' E 008°33'0 0.0
2018-Apr-13 12:00N 53°35' E 008°33'0 0.0
2018-Apr-13 11:30N 53°35' E 008°33'0 0.0
2018-Apr-13 11:00N 53°35' E 008°33'0 0.0
2018-Apr-13 10:00N 53°35' E 008°33'0 0.0
2018-Apr-13 09:30N 53°35' E 008°33'0 0.0
2018-Apr-13 09:00N 53°35' E 008°33'0 0.0
2018-Apr-13 08:30N 53°35' E 008°33'0 0.0
2018-Apr-13 08:00N 53°35' E 008°33'0 0.0
2018-Apr-13 07:30N 53°35' E 008°33'0 0.0
2018-Apr-13 07:00N 53°35' E 008°33'0 0.0
2018-Apr-13 06:31N 53°35' E 008°33'0 0.0
2018-Apr-13 06:00N 53°35' E 008°33'0 0.0
2018-Apr-13 05:30N 53°35' E 008°33'0 0.0
2018-Apr-13 05:00N 53°35' E 008°33'0 0.0
2018-Apr-13 04:30N 53°35' E 008°33'0 0.0
2018-Apr-13 04:00N 53°35' E 008°33'0 0.0
2018-Apr-13 03:29N 53°35' E 008°33'0 0.0
2018-Apr-13 03:00N 53°35' E 008°33'0 0.0
2018-Apr-13 02:30N 53°35' E 008°33'0 0.0
2018-Apr-13 02:01N 53°35' E 008°33'0 0.0
2018-Apr-13 01:30N 53°35' E 008°33'0 0.0
2018-Apr-13 01:00N 53°35' E 008°33'0 0.0
2018-Apr-13 00:30N 53°35' E 008°33'0 0.0
2018-Apr-13 00:00N 53°35' E 008°33'0 0.0
2018-Apr-12 23:30N 53°35' E 008°33'0 0.0
2018-Apr-12 23:00N 53°35' E 008°33'0 0.5
2018-Apr-12 22:30N 53°34' E 008°33'1 1.5
2018-Apr-12 22:00N 53°34' E 008°34'0 0.0
2018-Apr-12 21:30N 53°34' E 008°34'0 0.0
2018-Apr-12 21:00N 53°34' E 008°34'0 0.0
2018-Apr-12 20:30N 53°34' E 008°34'0 0.0
2018-Apr-12 20:00N 53°34' E 008°34'0 0.0
2018-Apr-12 19:30N 53°34' E 008°34'0 0.0
2018-Apr-12 19:00N 53°34' E 008°34'0 0.0
2018-Apr-12 18:30N 53°34' E 008°34'0 0.0
2018-Apr-12 18:00N 53°34' E 008°34'0 0.0
2018-Apr-12 17:30N 53°34' E 008°34'0 0.0
2018-Apr-12 17:00N 53°34' E 008°34'0 0.0
2018-Apr-12 16:30N 53°34' E 008°34'0 0.0
2018-Apr-12 15:58N 53°34' E 008°34'0 0.0
2018-Apr-12 15:30N 53°34' E 008°34'0 0.0
2018-Apr-12 15:00N 53°34' E 008°34'0 0.0
2018-Apr-12 14:30N 53°34' E 008°34'0 0.0
2018-Apr-12 14:00N 53°34' E 008°34'0 0.0
2018-Apr-12 13:30N 53°34' E 008°34'0 0.0
2018-Apr-12 13:00N 53°34' E 008°34'0 0.0
2018-Apr-12 12:30N 53°34' E 008°34'0 0.0
2018-Apr-12 12:00N 53°34' E 008°34'0 0.0
2018-Apr-12 11:30N 53°34' E 008°34'0 0.0
2018-Apr-12 11:00N 53°34' E 008°34'0 0.0
2018-Apr-12 10:30N 53°34' E 008°34'0 0.0
2018-Apr-12 10:00N 53°34' E 008°34'0 0.0
2018-Apr-12 09:30N 53°34' E 008°34'0 0.0
2018-Apr-12 09:00N 53°34' E 008°34'0 0.0
2018-Apr-12 08:30N 53°34' E 008°34'0 0.0
2018-Apr-12 08:00N 53°34' E 008°34'0 0.0
2018-Apr-12 07:30N 53°34' E 008°34'0 0.0
2018-Apr-12 07:00N 53°34' E 008°34'0 0.0
2018-Apr-12 06:30N 53°34' E 008°34'0 0.0
2018-Apr-12 06:00N 53°34' E 008°34'0 0.0
2018-Apr-12 05:30N 53°34' E 008°34'0 0.8
2018-Apr-12 05:00N 53°33' E 008°34'0 0.0
2018-Apr-12 04:30N 53°33' E 008°34'0 0.7
2018-Apr-12 04:00N 53°33' E 008°33'3 6.6
2018-Apr-12 03:30N 53°36' E 008°30'612.0
2018-Apr-12 03:00N 53°40' E 008°23'714.8
2018-Apr-12 02:30N 53°45' E 008°13'714.7
2018-Apr-12 02:00N 53°50' E 008°04'9512.8
2018-Apr-11 18:33N 53°34' E 005°26'114.9
2018-Apr-11 18:28N 53°34' E 005°24'714.9
2018-Apr-11 18:00N 53°32' E 005°13'815.1
2018-Apr-11 17:30N 53°29' E 005°01'815.6
2018-Apr-11 17:00N 53°26' E 004°49'915.3
2018-Apr-11 16:26N 53°19' E 004°39'916.6
2018-Apr-11 15:54N 53°11' E 004°32'716.6
2018-Apr-11 15:30N 53°06' E 004°27'916.6
2018-Apr-11 14:58N 52°58' E 004°19'816.8
2018-Apr-11 14:30N 52°51' E 004°14'1316.9
2018-Apr-11 13:45N 52°40' E 004°02'517.1
2018-Apr-11 13:28N 52°36' E 003°58'817.0
2018-Apr-11 12:59N 52°28' E 003°54'817.3
2018-Apr-11 12:30N 52°20' E 003°52'917.4
2018-Apr-11 12:00N 52°12' E 003°54'714.7
2018-Apr-11 11:30N 52°04' E 003°54'5 9.2
2018-Apr-11 11:00N 52°01' E 003°59'611.5
2018-Apr-11 10:30N 51°58' E 004°07'3 6.8
2018-Apr-11 10:00N 51°56' E 004°12'2 4.4
2018-Apr-11 09:29N 51°54' E 004°14'1 1.4
2018-Apr-11 08:59N 51°54' E 004°15'0 0.0
2018-Apr-11 08:29N 51°54' E 004°15'0 0.0
2018-Apr-11 08:01N 51°54' E 004°15'0 0.0
2018-Apr-11 07:30N 51°54' E 004°15'0 0.0
2018-Apr-11 07:00N 51°54' E 004°15'0 0.0
2018-Apr-11 06:31N 51°54' E 004°15'0 0.0
2018-Apr-11 06:01N 51°54' E 004°15'0 0.0
2018-Apr-11 05:31N 51°54' E 004°15'0 0.0
2018-Apr-11 05:01N 51°54' E 004°15'0 0.0
2018-Apr-11 04:31N 51°54' E 004°15'0 0.0
2018-Apr-11 04:01N 51°54' E 004°15'0 0.0
2018-Apr-11 03:31N 51°54' E 004°15'0 0.0
2018-Apr-11 03:01N 51°54' E 004°15'0 0.0
2018-Apr-11 02:31N 51°54' E 004°15'0 0.0
2018-Apr-11 02:01N 51°54' E 004°15'0 0.9
2018-Apr-11 01:31N 51°54' E 004°14'1 2.1
2018-Apr-11 01:01N 51°55' E 004°13'3 6.1
2018-Apr-11 00:31N 51°57' E 004°10'4 8.7
2018-Apr-11 00:01N 51°59' E 004°04'2 4.4
2018-Apr-10 23:31N 52°00' E 004°01'3 6.8
2018-Apr-10 23:01N 51°58' E 004°06'4 7.8
2018-Apr-10 22:31N 51°60' E 003°60'611.8
2018-Apr-10 22:01N 52°00' E 003°50'510.1
2018-Apr-10 21:31N 51°59' E 003°42'815.9
2018-Apr-10 21:01N 51°57' E 003°30'1216.7
2018-Apr-10 20:16N 51°53' E 003°11'516.7
2018-Apr-10 19:59N 51°51' E 003°04'2013.3
2018-Apr-10 18:27N 51°35' E 002°43'716.0
2018-Apr-10 17:59N 51°28' E 002°43'612.5
2018-Apr-10 17:30N 51°22' E 002°45'714.3
2018-Apr-10 17:00N 51°23' E 002°56'714.4
2018-Apr-10 16:31N 51°24' E 003°08'5 9.6
2018-Apr-10 15:59N 51°20' E 003°13'0 0.2
2018-Apr-10 15:29N 51°20' E 003°13'0 0.0
2018-Apr-10 14:59N 51°20' E 003°13'2 3.1
2018-Apr-10 14:30N 51°19' E 003°14'0 0.3
2018-Apr-10 14:00N 51°18' E 003°14'0 0.0
2018-Apr-10 13:30N 51°18' E 003°14'0 0.0
2018-Apr-10 13:00N 51°18' E 003°14'0 0.0
2018-Apr-10 12:30N 51°18' E 003°14'0 0.0
2018-Apr-10 12:00N 51°18' E 003°14'0 0.0
2018-Apr-10 11:30N 51°18' E 003°14'0 0.0
2018-Apr-10 11:00N 51°18' E 003°14'0 0.0
2018-Apr-10 10:30N 51°18' E 003°14'0 0.0
2018-Apr-10 10:00N 51°18' E 003°14'0 0.0
2018-Apr-10 09:30N 51°18' E 003°14'0 0.0
2018-Apr-10 09:00N 51°18' E 003°14'0 0.0
2018-Apr-10 08:30N 51°18' E 003°14'0 0.0
2018-Apr-10 08:00N 51°18' E 003°14'0 0.0
2018-Apr-10 07:30N 51°18' E 003°14'0 0.0
2018-Apr-10 07:00N 51°18' E 003°14'0 0.0
2018-Apr-10 06:27N 51°18' E 003°14'0 0.0
2018-Apr-10 06:00N 51°18' E 003°14'0 0.0
2018-Apr-10 05:30N 51°18' E 003°14'0 0.0
2018-Apr-10 05:00N 51°18' E 003°14'0 0.0
2018-Apr-10 04:30N 51°18' E 003°14'0 0.0
2018-Apr-10 04:00N 51°18' E 003°14'0 0.0
2018-Apr-10 03:30N 51°18' E 003°14'0 0.0
2018-Apr-10 03:00N 51°18' E 003°14'0 0.0
2018-Apr-10 02:30N 51°18' E 003°14'0 0.0
2018-Apr-10 02:00N 51°18' E 003°14'0 0.0
2018-Apr-10 01:29N 51°18' E 003°14'0 0.0
2018-Apr-10 01:00N 51°18' E 003°14'0 0.0
2018-Apr-10 00:30N 51°18' E 003°14'0 0.0
2018-Apr-10 00:00N 51°18' E 003°14'0 0.0
2018-Apr-09 23:30N 51°18' E 003°14'0 0.0
2018-Apr-09 23:00N 51°18' E 003°14'0 0.0
2018-Apr-09 22:30N 51°18' E 003°14'0 0.0
2018-Apr-09 22:00N 51°18' E 003°14'0 0.0
2018-Apr-09 21:30N 51°18' E 003°14'0 0.0
2018-Apr-09 21:00N 51°18' E 003°14'0 0.0
2018-Apr-09 20:30N 51°18' E 003°14'0 0.0
2018-Apr-09 20:00N 51°18' E 003°14'0 0.0
2018-Apr-09 19:30N 51°18' E 003°14'0 0.0
2018-Apr-09 19:00N 51°18' E 003°14'0 0.0
2018-Apr-09 18:30N 51°18' E 003°14'0 0.0
2018-Apr-09 18:00N 51°18' E 003°14'0 0.0
2018-Apr-09 17:30N 51°18' E 003°14'0 0.0
2018-Apr-09 17:00N 51°18' E 003°14'0 0.0
2018-Apr-09 16:30N 51°18' E 003°14'0 0.0
2018-Apr-09 16:00N 51°18' E 003°14'0 0.0
2018-Apr-09 15:30N 51°18' E 003°14'0 0.0
2018-Apr-09 15:00N 51°18' E 003°14'0 0.0
2018-Apr-09 14:30N 51°18' E 003°14'0 0.0
2018-Apr-09 14:00N 51°18' E 003°14'0 0.0
2018-Apr-09 13:30N 51°18' E 003°14'0 0.0
2018-Apr-09 13:00N 51°18' E 003°14'0 0.0
2018-Apr-09 12:30N 51°18' E 003°14'0 0.0
2018-Apr-09 11:59N 51°18' E 003°14'0 0.0
2018-Apr-09 11:30N 51°18' E 003°14'0 0.0
2018-Apr-09 11:00N 51°18' E 003°14'0 0.0
2018-Apr-09 10:30N 51°18' E 003°14'1 1.3
2018-Apr-09 10:00N 51°18' E 003°14'0 0.0
2018-Apr-09 09:30N 51°18' E 003°14'0 0.0
2018-Apr-09 09:00N 51°18' E 003°14'0 0.0
2018-Apr-09 08:30N 51°18' E 003°14'0 0.0
2018-Apr-09 08:00N 51°18' E 003°14'0 0.0
2018-Apr-09 07:30N 51°18' E 003°14'0 0.0
2018-Apr-09 07:00N 51°18' E 003°14'0 0.0
2018-Apr-09 06:30N 51°18' E 003°14'0 0.0
2018-Apr-09 06:00N 51°18' E 003°14'0 0.0
2018-Apr-09 05:30N 51°18' E 003°14'0 0.0
2018-Apr-09 05:00N 51°18' E 003°14'0 0.0
2018-Apr-09 04:30N 51°18' E 003°14'0 0.0
2018-Apr-09 04:00N 51°18' E 003°14'0 0.0
2018-Apr-09 03:30N 51°18' E 003°14'0 0.0
2018-Apr-09 03:00N 51°18' E 003°14'0 0.0
2018-Apr-09 02:30N 51°18' E 003°14'0 0.0
2018-Apr-09 02:00N 51°18' E 003°14'0 0.0
2018-Apr-09 01:30N 51°18' E 003°14'0 0.0
2018-Apr-09 01:00N 51°18' E 003°14'0 0.0
2018-Apr-09 00:30N 51°18' E 003°14'0 0.0
2018-Apr-09 00:00N 51°18' E 003°14'0 0.0
2018-Apr-08 23:30N 51°18' E 003°14'  
Track history (hours):
 
Tides and Currents Weather Stations Pressure Air Temp Water Temp Dewpoint Dewpoint Depression Visibility Wind Speed Wind Dir Waves Ship Positions

Leo Leader

Last reported at 2018-Apr-18 23:26 UTC. Time now 2018-Apr-19 19:27 UTC.
Position N 36°40' W 000°07'.

Length 200 m; draft 8.2 m.

Type: Cargo ship. MMSI: 357682000.

Date/timePositionNaut miles runAvg speedWind from/ knotsBaromVisibWave heightAir tempDewpointWater temp
2018-Apr-18 23:26N 36°40' W 000°07'716.3
2018-Apr-18 23:00N 36°38' W 000°15'2616.4
2018-Apr-18 21:26N 36°31' W 000°46'21716.8
2018-Apr-18 08:28N 36°00' W 005°13'817.0
2018-Apr-18 08:00N 35°59' W 005°23'15516.0
2018-Apr-17 22:19N 36°25' W 008°33'516.2
2018-Apr-17 21:59N 36°26' W 008°39'1916.2
2018-Apr-17 20:49N 36°31' W 009°02'3814.9
2018-Apr-17 18:18N 36°57' W 009°36'1116.1
2018-Apr-17 17:37N 37°07' W 009°39'316.3
2018-Apr-17 17:26N 37°10' W 009°40'916.1
2018-Apr-17 16:54N 37°19' W 009°42'716.1
2018-Apr-17 16:30N 37°25' W 009°44'816.2
2018-Apr-17 16:00N 37°33' W 009°46'816.2
2018-Apr-17 15:30N 37°41' W 009°48'816.5
2018-Apr-17 15:00N 37°49' W 009°51'816.2
2018-Apr-17 14:30N 37°57' W 009°53'815.8
2018-Apr-17 14:00N 38°04' W 009°55'816.0
2018-Apr-17 13:30N 38°12' W 009°58'816.0
2018-Apr-17 13:00N 38°20' W 010°01'816.1
2018-Apr-17 12:30N 38°28' W 010°02'816.2
2018-Apr-17 12:00N 38°36' W 010°04'816.2
2018-Apr-17 11:30N 38°44' W 010°06'815.8
2018-Apr-17 11:00N 38°51' W 010°07'816.0
2018-Apr-17 10:30N 38°59' W 010°07'815.8
2018-Apr-17 10:00N 39°07' W 010°07'815.8
2018-Apr-17 09:28N 39°16' W 010°07'715.6
2018-Apr-17 09:00N 39°23' W 010°06'815.8
2018-Apr-17 08:30N 39°31' W 010°06'815.9
2018-Apr-17 07:59N 39°39' W 010°05'815.9
2018-Apr-17 07:28N 39°48' W 010°06'66813.7
2018-Apr-15 06:36N 49°59' W 003°47'114.7
2018-Apr-15 06:30N 49°60' W 003°45'714.6
2018-Apr-15 06:00N 50°05' W 003°37'714.4
2018-Apr-15 05:30N 50°10' W 003°29'714.4
2018-Apr-15 05:00N 50°17' W 003°25'714.7
2018-Apr-15 04:30N 50°24' W 003°24'1 2.5
2018-Apr-15 04:00N 50°25' W 003°23'611.3
2018-Apr-15 03:31N 50°25' W 003°14'816.6
2018-Apr-15 03:01N 50°25' W 003°01'917.6
2018-Apr-15 02:30N 50°26' W 002°47'918.4
2018-Apr-15 02:00N 50°26' W 002°33'1019.4
2018-Apr-15 01:31N 50°26' W 002°18'1419.7
2018-Apr-15 00:49N 50°26' W 001°56'619.6
2018-Apr-15 00:30N 50°26' W 001°47'1019.3
2018-Apr-15 00:00N 50°26' W 001°32'1019.1
2018-Apr-14 23:30N 50°27' W 001°17'1018.3
2018-Apr-14 22:58N 50°27' W 001°01'817.4
2018-Apr-14 22:31N 50°27' W 000°49'815.9
2018-Apr-14 21:59N 50°27' W 000°36'815.4
2018-Apr-14 21:30N 50°27' W 000°24'715.0
2018-Apr-14 21:00N 50°28' W 000°12'714.6
2018-Apr-14 20:31N 50°30' W 000°01'714.5
2018-Apr-14 20:00N 50°31' E 000°10'714.5
2018-Apr-14 19:31N 50°33' E 000°21'815.1
2018-Apr-14 19:01N 50°35' E 000°32'815.7
2018-Apr-14 18:31N 50°40' E 000°43'917.1
2018-Apr-14 18:00N 50°45' E 000°53'918.1
2018-Apr-14 17:30N 50°51' E 001°04'918.5
2018-Apr-14 17:00N 50°57' E 001°15'918.8
2018-Apr-14 16:30N 51°04' E 001°26'917.9
2018-Apr-14 16:01N 51°09' E 001°37'816.9
2018-Apr-14 15:31N 51°15' E 001°47'816.1
2018-Apr-14 15:00N 51°22' E 001°53'815.5
2018-Apr-14 14:31N 51°29' E 001°60'815.1
2018-Apr-14 14:00N 51°34' E 002°08'715.0
2018-Apr-14 13:30N 51°39' E 002°17'714.7
2018-Apr-14 13:00N 51°44' E 002°25'714.6
2018-Apr-14 12:30N 51°50' E 002°33'5216.0
2018-Apr-14 09:16N 52°31' E 003°23'1617.3
2018-Apr-14 08:20N 52°44' E 003°39'817.3
2018-Apr-14 07:54N 52°50' E 003°47'816.9
2018-Apr-14 07:24N 52°56' E 003°57'716.6
2018-Apr-14 06:58N 53°01' E 004°06'816.3
2018-Apr-14 06:29N 53°06' E 004°16'2115.2
2018-Apr-14 05:05N 53°24' E 004°35'215.3
2018-Apr-14 04:58N 53°26' E 004°36'714.6
2018-Apr-14 04:30N 53°30' E 004°45'715.0
2018-Apr-14 04:00N 53°33' E 004°56'815.0
2018-Apr-14 03:30N 53°36' E 005°08'815.6
2018-Apr-14 03:00N 53°38' E 005°21'816.6
2018-Apr-14 02:30N 53°41' E 005°34'8514.9
2018-Apr-13 20:49N 53°52' E 007°56'413.5
2018-Apr-13 20:30N 53°51' E 008°03'713.7
2018-Apr-13 20:00N 53°46' E 008°11'713.4
2018-Apr-13 19:30N 53°42' E 008°20'612.6
2018-Apr-13 19:00N 53°38' E 008°28'4 8.3
2018-Apr-13 18:30N 53°34' E 008°32'1 1.1
2018-Apr-13 18:00N 53°34' E 008°33'0 0.8
2018-Apr-13 17:30N 53°35' E 008°33'0 0.1
2018-Apr-13 17:00N 53°35' E 008°33'0 0.0
2018-Apr-13 16:30N 53°35' E 008°33'0 0.0
2018-Apr-13 16:00N 53°35' E 008°33'0 0.0
2018-Apr-13 15:30N 53°35' E 008°33'0 0.0
2018-Apr-13 15:00N 53°35' E 008°33'0 0.0
2018-Apr-13 14:00N 53°35' E 008°33'0 0.0
2018-Apr-13 13:30N 53°35' E 008°33'0 0.0
2018-Apr-13 12:30N 53°35' E 008°33'0 0.0
2018-Apr-13 12:00N 53°35' E 008°33'0 0.0
2018-Apr-13 11:30N 53°35' E 008°33'0 0.0
2018-Apr-13 11:00N 53°35' E 008°33'0 0.0
2018-Apr-13 10:00N 53°35' E 008°33'0 0.0
2018-Apr-13 09:30N 53°35' E 008°33'0 0.0
2018-Apr-13 09:00N 53°35' E 008°33'0 0.0
2018-Apr-13 08:30N 53°35' E 008°33'0 0.0
2018-Apr-13 08:00N 53°35' E 008°33'0 0.0
2018-Apr-13 07:30N 53°35' E 008°33'0 0.0
2018-Apr-13 07:00N 53°35' E 008°33'0 0.0
2018-Apr-13 06:31N 53°35' E 008°33'0 0.0
2018-Apr-13 06:00N 53°35' E 008°33'0 0.0
2018-Apr-13 05:30N 53°35' E 008°33'0 0.0
2018-Apr-13 05:00N 53°35' E 008°33'0 0.0
2018-Apr-13 04:30N 53°35' E 008°33'0 0.0
2018-Apr-13 04:00N 53°35' E 008°33'0 0.0
2018-Apr-13 03:29N 53°35' E 008°33'0 0.0
2018-Apr-13 03:00N 53°35' E 008°33'0 0.0
2018-Apr-13 02:30N 53°35' E 008°33'0 0.0
2018-Apr-13 02:01N 53°35' E 008°33'0 0.0
2018-Apr-13 01:30N 53°35' E 008°33'0 0.0
2018-Apr-13 01:00N 53°35' E 008°33'0 0.0
2018-Apr-13 00:30N 53°35' E 008°33'0 0.0
2018-Apr-13 00:00N 53°35' E 008°33'0 0.0
2018-Apr-12 23:30N 53°35' E 008°33'0 0.0
2018-Apr-12 23:00N 53°35' E 008°33'0 0.5
2018-Apr-12 22:30N 53°34' E 008°33'1 1.5
2018-Apr-12 22:00N 53°34' E 008°34'0 0.0
2018-Apr-12 21:30N 53°34' E 008°34'0 0.0
2018-Apr-12 21:00N 53°34' E 008°34'0 0.0
2018-Apr-12 20:30N 53°34' E 008°34'0 0.0
2018-Apr-12 20:00N 53°34' E 008°34'0 0.0
2018-Apr-12 19:30N 53°34' E 008°34'0 0.0
2018-Apr-12 19:00N 53°34' E 008°34'0 0.0
2018-Apr-12 18:30N 53°34' E 008°34'0 0.0
2018-Apr-12 18:00N 53°34' E 008°34'0 0.0
2018-Apr-12 17:30N 53°34' E 008°34'0 0.0
2018-Apr-12 17:00N 53°34' E 008°34'0 0.0
2018-Apr-12 16:30N 53°34' E 008°34'0 0.0
2018-Apr-12 15:58N 53°34' E 008°34'0 0.0
2018-Apr-12 15:30N 53°34' E 008°34'0 0.0
2018-Apr-12 15:00N 53°34' E 008°34'0 0.0
2018-Apr-12 14:30N 53°34' E 008°34'0 0.0
2018-Apr-12 14:00N 53°34' E 008°34'0 0.0
2018-Apr-12 13:30N 53°34' E 008°34'0 0.0
2018-Apr-12 13:00N 53°34' E 008°34'0 0.0
2018-Apr-12 12:30N 53°34' E 008°34'0 0.0
2018-Apr-12 12:00N 53°34' E 008°34'0 0.0
2018-Apr-12 11:30N 53°34' E 008°34'0 0.0
2018-Apr-12 11:00N 53°34' E 008°34'0 0.0
2018-Apr-12 10:30N 53°34' E 008°34'0 0.0
2018-Apr-12 10:00N 53°34' E 008°34'0 0.0
2018-Apr-12 09:30N 53°34' E 008°34'0 0.0
2018-Apr-12 09:00N 53°34' E 008°34'0 0.0
2018-Apr-12 08:30N 53°34' E 008°34'0 0.0
2018-Apr-12 08:00N 53°34' E 008°34'0 0.0
2018-Apr-12 07:30N 53°34' E 008°34'0 0.0
2018-Apr-12 07:00N 53°34' E 008°34'0 0.0
2018-Apr-12 06:30N 53°34' E 008°34'0 0.0
2018-Apr-12 06:00N 53°34' E 008°34'0 0.0
2018-Apr-12 05:30N 53°34' E 008°34'0 0.8
2018-Apr-12 05:00N 53°33' E 008°34'0 0.0
2018-Apr-12 04:30N 53°33' E 008°34'0 0.7
2018-Apr-12 04:00N 53°33' E 008°33'3 6.6
2018-Apr-12 03:30N 53°36' E 008°30'612.0
2018-Apr-12 03:00N 53°40' E 008°23'714.8
2018-Apr-12 02:30N 53°45' E 008°13'714.7
2018-Apr-12 02:00N 53°50' E 008°04'9512.8
2018-Apr-11 18:33N 53°34' E 005°26'114.9
2018-Apr-11 18:28N 53°34' E 005°24'714.9
2018-Apr-11 18:00N 53°32' E 005°13'815.1
2018-Apr-11 17:30N 53°29' E 005°01'815.6
2018-Apr-11 17:00N 53°26' E 004°49'915.3
2018-Apr-11 16:26N 53°19' E 004°39'916.6
2018-Apr-11 15:54N 53°11' E 004°32'716.6
2018-Apr-11 15:30N 53°06' E 004°27'916.6
2018-Apr-11 14:58N 52°58' E 004°19'816.8
2018-Apr-11 14:30N 52°51' E 004°14'1316.9
2018-Apr-11 13:45N 52°40' E 004°02'517.1
2018-Apr-11 13:28N 52°36' E 003°58'817.0
2018-Apr-11 12:59N 52°28' E 003°54'817.3
2018-Apr-11 12:30N 52°20' E 003°52'917.4
2018-Apr-11 12:00N 52°12' E 003°54'714.7
2018-Apr-11 11:30N 52°04' E 003°54'5 9.2
2018-Apr-11 11:00N 52°01' E 003°59'611.5
2018-Apr-11 10:30N 51°58' E 004°07'3 6.8
2018-Apr-11 10:00N 51°56' E 004°12'2 4.4
2018-Apr-11 09:29N 51°54' E 004°14'1 1.4
2018-Apr-11 08:59N 51°54' E 004°15'0 0.0
2018-Apr-11 08:29N 51°54' E 004°15'0 0.0
2018-Apr-11 08:01N 51°54' E 004°15'0 0.0
2018-Apr-11 07:30N 51°54' E 004°15'0 0.0
2018-Apr-11 07:00N 51°54' E 004°15'0 0.0
2018-Apr-11 06:31N 51°54' E 004°15'0 0.0
2018-Apr-11 06:01N 51°54' E 004°15'0 0.0
2018-Apr-11 05:31N 51°54' E 004°15'0 0.0
2018-Apr-11 05:01N 51°54' E 004°15'0 0.0
2018-Apr-11 04:31N 51°54' E 004°15'0 0.0
2018-Apr-11 04:01N 51°54' E 004°15'0 0.0
2018-Apr-11 03:31N 51°54' E 004°15'0 0.0
2018-Apr-11 03:01N 51°54' E 004°15'0 0.0
2018-Apr-11 02:31N 51°54' E 004°15'0 0.0
2018-Apr-11 02:01N 51°54' E 004°15'0 0.9
2018-Apr-11 01:31N 51°54' E 004°14'1 2.1
2018-Apr-11 01:01N 51°55' E 004°13'3 6.1
2018-Apr-11 00:31N 51°57' E 004°10'4 8.7
2018-Apr-11 00:01N 51°59' E 004°04'2 4.4
2018-Apr-10 23:31N 52°00' E 004°01'3 6.8
2018-Apr-10 23:01N 51°58' E 004°06'4 7.8
2018-Apr-10 22:31N 51°60' E 003°60'611.8
2018-Apr-10 22:01N 52°00' E 003°50'510.1
2018-Apr-10 21:31N 51°59' E 003°42'815.9
2018-Apr-10 21:01N 51°57' E 003°30'1216.7
2018-Apr-10 20:16N 51°53' E 003°11'516.7
2018-Apr-10 19:59N 51°51' E 003°04'2013.3
2018-Apr-10 18:27N 51°35' E 002°43'716.0
2018-Apr-10 17:59N 51°28' E 002°43'612.5
2018-Apr-10 17:30N 51°22' E 002°45'714.3
2018-Apr-10 17:00N 51°23' E 002°56'714.4
2018-Apr-10 16:31N 51°24' E 003°08'5 9.6
2018-Apr-10 15:59N 51°20' E 003°13'0 0.2
2018-Apr-10 15:29N 51°20' E 003°13'0 0.0
2018-Apr-10 14:59N 51°20' E 003°13'2 3.1
2018-Apr-10 14:30N 51°19' E 003°14'0 0.3
2018-Apr-10 14:00N 51°18' E 003°14'0 0.0
2018-Apr-10 13:30N 51°18' E 003°14'0 0.0
2018-Apr-10 13:00N 51°18' E 003°14'0 0.0
2018-Apr-10 12:30N 51°18' E 003°14'0 0.0
2018-Apr-10 12:00N 51°18' E 003°14'0 0.0
2018-Apr-10 11:30N 51°18' E 003°14'0 0.0
2018-Apr-10 11:00N 51°18' E 003°14'0 0.0
2018-Apr-10 10:30N 51°18' E 003°14'0 0.0
2018-Apr-10 10:00N 51°18' E 003°14'0 0.0
2018-Apr-10 09:30N 51°18' E 003°14'0 0.0
2018-Apr-10 09:00N 51°18' E 003°14'0 0.0
2018-Apr-10 08:30N 51°18' E 003°14'0 0.0
2018-Apr-10 08:00N 51°18' E 003°14'0 0.0
2018-Apr-10 07:30N 51°18' E 003°14'0 0.0
2018-Apr-10 07:00N 51°18' E 003°14'0 0.0
2018-Apr-10 06:27N 51°18' E 003°14'0 0.0
2018-Apr-10 06:00N 51°18' E 003°14'0 0.0
2018-Apr-10 05:30N 51°18' E 003°14'0 0.0
2018-Apr-10 05:00N 51°18' E 003°14'0 0.0
2018-Apr-10 04:30N 51°18' E 003°14'0 0.0
2018-Apr-10 04:00N 51°18' E 003°14'0 0.0
2018-Apr-10 03:30N 51°18' E 003°14'0 0.0
2018-Apr-10 03:00N 51°18' E 003°14'0 0.0
2018-Apr-10 02:30N 51°18' E 003°14'0 0.0
2018-Apr-10 02:00N 51°18' E 003°14'0 0.0
2018-Apr-10 01:29N 51°18' E 003°14'0 0.0
2018-Apr-10 01:00N 51°18' E 003°14'0 0.0
2018-Apr-10 00:30N 51°18' E 003°14'0 0.0
2018-Apr-10 00:00N 51°18' E 003°14'0 0.0
2018-Apr-09 23:30N 51°18' E 003°14'0 0.0
2018-Apr-09 23:00N 51°18' E 003°14'0 0.0
2018-Apr-09 22:30N 51°18' E 003°14'0 0.0
2018-Apr-09 22:00N 51°18' E 003°14'0 0.0
2018-Apr-09 21:30N 51°18' E 003°14'0 0.0
2018-Apr-09 21:00N 51°18' E 003°14'0 0.0
2018-Apr-09 20:30N 51°18' E 003°14'0 0.0
2018-Apr-09 20:00N 51°18' E 003°14'0 0.0
2018-Apr-09 19:30N 51°18' E 003°14'0 0.0
2018-Apr-09 19:00N 51°18' E 003°14'0 0.0
2018-Apr-09 18:30N 51°18' E 003°14'0 0.0
2018-Apr-09 18:00N 51°18' E 003°14'0 0.0
2018-Apr-09 17:30N 51°18' E 003°14'0 0.0
2018-Apr-09 17:00N 51°18' E 003°14'0 0.0
2018-Apr-09 16:30N 51°18' E 003°14'0 0.0
2018-Apr-09 16:00N 51°18' E 003°14'0 0.0
2018-Apr-09 15:30N 51°18' E 003°14'0 0.0
2018-Apr-09 15:00N 51°18' E 003°14'0 0.0
2018-Apr-09 14:30N 51°18' E 003°14'0 0.0
2018-Apr-09 14:00N 51°18' E 003°14'0 0.0
2018-Apr-09 13:30N 51°18' E 003°14'0 0.0
2018-Apr-09 13:00N 51°18' E 003°14'0 0.0
2018-Apr-09 12:30N 51°18' E 003°14'0 0.0
2018-Apr-09 11:59N 51°18' E 003°14'0 0.0
2018-Apr-09 11:30N 51°18' E 003°14'0 0.0
2018-Apr-09 11:00N 51°18' E 003°14'0 0.0
2018-Apr-09 10:30N 51°18' E 003°14'1 1.3
2018-Apr-09 10:00N 51°18' E 003°14'0 0.0
2018-Apr-09 09:30N 51°18' E 003°14'0 0.0
2018-Apr-09 09:00N 51°18' E 003°14'0 0.0
2018-Apr-09 08:30N 51°18' E 003°14'0 0.0
2018-Apr-09 08:00N 51°18' E 003°14'0 0.0
2018-Apr-09 07:30N 51°18' E 003°14'0 0.0
2018-Apr-09 07:00N 51°18' E 003°14'0 0.0
2018-Apr-09 06:30N 51°18' E 003°14'0 0.0
2018-Apr-09 06:00N 51°18' E 003°14'0 0.0
2018-Apr-09 05:30N 51°18' E 003°14'0 0.0
2018-Apr-09 05:00N 51°18' E 003°14'0 0.0
2018-Apr-09 04:30N 51°18' E 003°14'0 0.0
2018-Apr-09 04:00N 51°18' E 003°14'0 0.0
2018-Apr-09 03:30N 51°18' E 003°14'0 0.0
2018-Apr-09 03:00N 51°18' E 003°14'0 0.0
2018-Apr-09 02:30N 51°18' E 003°14'0 0.0
2018-Apr-09 02:00N 51°18' E 003°14'0 0.0
2018-Apr-09 01:30N 51°18' E 003°14'0 0.0
2018-Apr-09 01:00N 51°18' E 003°14'0 0.0
2018-Apr-09 00:30N 51°18' E 003°14'0 0.0
2018-Apr-09 00:00N 51°18' E 003°14'0 0.0
2018-Apr-08 23:30N 51°18' E 003°14'  

Dump ship's entire track history